This is the latest recevied weather packets stored in our database for station/object OK4ZAW-16. If no packets are shown the sender has not sent any weather packets the latest 10 day(s).
| Time | Temp. | Humidity | Pressure | Rain* | Wind** | Luminosity | Snow |
|---|---|---|---|---|---|---|---|
| 1777563703 | 7.78° C | 55% | 1029.1 hPa | - | - | 150 W/m² | - |
| 1777563286 | 8.89° C | 52% | 1029 hPa | - | - | 150 W/m² | - |
| 1777562870 | 8.89° C | 49% | 1028.9 hPa | - | - | 150 W/m² | - |
| 1777562454 | 9.44° C | 48% | 1028.9 hPa | - | - | 150 W/m² | - |
| 1777562037 | 10° C | 46% | 1028.9 hPa | - | - | 150 W/m² | - |
| 1777561621 | 10° C | 48% | 1028.9 hPa | - | - | 150 W/m² | - |
| 1777561204 | 9.44° C | 47% | 1028.9 hPa | - | - | 150 W/m² | - |
| 1777560787 | 10.56° C | 44% | 1028.9 hPa | - | - | 150 W/m² | - |
| 1777560370 | 11.67° C | 42% | 1028.9 hPa | - | - | 150 W/m² | - |
| 1777559954 | 12.22° C | 40% | 1028.9 hPa | - | - | 150 W/m² | - |
| 1777559537 | 12.22° C | 40% | 1029 hPa | - | - | 150 W/m² | - |
| 1777559121 | 11.67° C | 40% | 1029 hPa | - | - | 150 W/m² | - |
| 1777558704 | 10° C | 43% | 1029.1 hPa | - | - | 150 W/m² | - |
| 1777558288 | 10° C | 41% | 1029.1 hPa | - | - | 150 W/m² | - |
| 1777557871 | 12.22° C | 37% | 1029.1 hPa | - | - | 150 W/m² | - |
| 1777557455 | 12.78° C | 38% | 1029.2 hPa | - | - | 150 W/m² | - |
| 1777557038 | 12.22° C | 39% | 1029.2 hPa | - | - | 150 W/m² | - |
| 1777556622 | 11.11° C | 40% | 1029.3 hPa | - | - | 150 W/m² | - |
| 1777556205 | 10.56° C | 42% | 1029.3 hPa | - | - | 150 W/m² | - |
| 1777555789 | 9.44° C | 42% | 1029.2 hPa | - | - | 150 W/m² | - |
| 1777555373 | 9.44° C | 43% | 1029.4 hPa | - | - | 150 W/m² | - |
| 1777554956 | 8.89° C | 44% | 1029.5 hPa | - | - | 150 W/m² | - |
| 1777554540 | 8.89° C | 43% | 1029.5 hPa | - | - | 150 W/m² | - |
| 1777554124 | 8.33° C | 45% | 1029.5 hPa | - | - | 150 W/m² | - |
| 1777553707 | 7.78° C | 42% | 1029.5 hPa | - | - | 150 W/m² | - |
* Rain since midnight (hover to see other rain measurements)
** Current wind speed in m/s (hover to see current wind gust speed)